createdAt,value
2022-11-12T00:02:10.018Z,21.07
2022-11-12T00:04:58.799Z,20.83
2022-11-12T00:07:46.155Z,17.90
2022-11-12T00:10:33.776Z,19.13
2022-11-12T00:13:21.246Z,17.33
2022-11-12T00:16:08.795Z,16.67
2022-11-12T00:18:55.580Z,16.73
2022-11-12T00:21:44.240Z,18.07
2022-11-12T00:24:31.595Z,17.97
2022-11-12T00:27:18.539Z,14.33
2022-11-12T00:30:06.947Z,15.47
2022-11-12T00:32:54.193Z,17.17
2022-11-12T00:35:40.865Z,11.63
2022-11-12T00:38:31.436Z,13.53
2022-11-12T00:41:17.821Z,16.23
2022-11-12T00:44:04.238Z,14.03
2022-11-12T00:46:51.004Z,13.53
2022-11-12T00:49:37.644Z,14.33
2022-11-12T00:52:24.089Z,13.03
2022-11-12T00:55:12.075Z,14.13
2022-11-12T00:58:00.156Z,12.83
2022-11-12T01:00:46.925Z,13.37
2022-11-12T01:03:33.487Z,14.27
2022-11-12T01:06:22.201Z,14.77
2022-11-12T01:09:08.837Z,13.57
2022-11-12T01:11:56.993Z,16.13
2022-11-12T01:14:43.564Z,14.80
2022-11-12T01:17:30.016Z,13.20
2022-11-12T01:20:16.849Z,14.03
2022-11-12T01:23:03.233Z,14.53
2022-11-12T01:25:49.704Z,13.77
2022-11-12T01:28:37.842Z,11.97
2022-11-12T01:31:26.470Z,14.93
2022-11-12T01:34:12.793Z,12.07
2022-11-12T01:36:59.213Z,12.70
2022-11-12T01:39:45.547Z,13.70
2022-11-12T01:42:33.609Z,14.40
2022-11-12T01:45:23.973Z,14.13
2022-11-12T01:48:28.286Z,11.67
2022-11-12T01:51:16.783Z,12.03
2022-11-12T01:54:08.516Z,15.03
2022-11-12T01:56:56.850Z,12.87
2022-11-12T01:59:46.221Z,13.27
2022-11-12T02:02:35.490Z,12.13
2022-11-12T02:05:23.229Z,13.53
2022-11-12T02:08:12.872Z,12.93
2022-11-12T02:10:59.651Z,12.10
2022-11-12T02:13:59.223Z,15.30
2022-11-12T02:16:47.413Z,15.47
2022-11-12T02:19:38.635Z,12.50
2022-11-12T02:22:26.436Z,13.97
2022-11-12T02:25:15.064Z,12.27
2022-11-12T02:28:03.664Z,13.10
2022-11-12T02:30:51.084Z,13.50
2022-11-12T02:33:37.632Z,13.80
2022-11-12T02:36:24.921Z,13.83
2022-11-12T02:39:12.789Z,11.73
2022-11-12T02:41:59.718Z,15.30
2022-11-12T02:44:46.505Z,13.17
2022-11-12T02:47:33.141Z,13.20
2022-11-12T02:50:20.017Z,13.93
2022-11-12T02:53:06.455Z,13.33
2022-11-12T02:55:54.458Z,12.47
2022-11-12T02:58:41.176Z,17.00
2022-11-12T03:01:27.519Z,14.90
2022-11-12T03:04:14.325Z,13.80
2022-11-12T03:07:00.812Z,13.40
2022-11-12T03:09:47.045Z,12.63
2022-11-12T03:12:34.867Z,15.90
2022-11-12T03:15:21.641Z,13.60
2022-11-12T03:18:07.981Z,14.63
2022-11-12T03:20:54.677Z,12.30
2022-11-12T03:23:41.197Z,13.27
2022-11-12T03:26:30.575Z,12.37
2022-11-12T03:29:22.260Z,13.57
2022-11-12T03:32:08.843Z,13.30
2022-11-12T03:34:55.831Z,14.27
2022-11-12T03:37:42.391Z,14.80
2022-11-12T03:40:29.947Z,15.40
2022-11-12T03:43:16.365Z,13.57
2022-11-12T03:46:04.321Z,13.17
2022-11-12T03:48:51.010Z,15.13
2022-11-12T03:51:37.520Z,14.33
2022-11-12T03:54:23.896Z,13.67
2022-11-12T03:57:10.088Z,14.80
2022-11-12T03:59:56.558Z,13.70
2022-11-12T04:02:44.368Z,12.47
2022-11-12T04:05:48.341Z,13.63
2022-11-12T04:08:37.669Z,12.97
2022-11-12T04:11:24.276Z,13.97
2022-11-12T04:14:11.028Z,13.13
2022-11-12T04:17:14.994Z,14.73
2022-11-12T04:20:20.760Z,10.77
2022-11-12T04:23:07.634Z,12.37
2022-11-12T04:26:11.288Z,13.27
2022-11-12T04:29:15.407Z,11.20
2022-11-12T04:32:02.025Z,15.27
2022-11-12T04:34:49.096Z,13.30
2022-11-12T04:37:47.010Z,12.37
2022-11-12T04:40:51.382Z,11.53
2022-11-12T04:43:55.425Z,15.03
2022-11-12T04:46:42.048Z,11.10
2022-11-12T04:49:28.520Z,10.93
2022-11-12T04:52:15.148Z,11.97
2022-11-12T04:55:03.019Z,14.43
2022-11-12T04:57:49.710Z,11.40
2022-11-12T05:00:36.166Z,12.37
2022-11-12T05:03:22.957Z,10.50
2022-11-12T05:06:29.921Z,12.83
2022-11-12T05:09:16.411Z,12.03
2022-11-12T05:12:04.604Z,12.33
2022-11-12T05:14:51.208Z,11.10
2022-11-12T05:17:37.645Z,11.30
2022-11-12T05:20:24.165Z,10.23
2022-11-12T05:23:10.597Z,11.50
2022-11-12T05:25:57.083Z,9.93
2022-11-12T05:28:44.938Z,13.20
2022-11-12T05:31:31.658Z,11.37
2022-11-12T05:34:22.715Z,11.47
2022-11-12T05:37:10.488Z,9.40
2022-11-12T05:39:56.875Z,12.20
2022-11-12T05:42:43.648Z,11.80
2022-11-12T05:45:31.672Z,10.33
2022-11-12T05:48:24.023Z,11.63
2022-11-12T05:51:14.189Z,11.30
2022-11-12T05:54:01.341Z,11.40
2022-11-12T05:56:48.408Z,10.83
2022-11-12T05:59:34.860Z,12.17
2022-11-12T06:02:22.929Z,14.50
2022-11-12T06:05:10.183Z,10.93
2022-11-12T06:07:56.557Z,11.33
2022-11-12T06:10:43.003Z,13.53
2022-11-12T06:13:29.441Z,12.23
2022-11-12T06:16:15.872Z,12.60
2022-11-12T06:19:04.841Z,10.67
2022-11-12T06:21:51.579Z,12.37
2022-11-12T06:24:38.539Z,13.93
2022-11-12T06:27:25.086Z,12.13
2022-11-12T06:30:11.985Z,14.57
2022-11-12T06:32:58.797Z,13.23
2022-11-12T06:35:46.851Z,14.03
2022-11-12T06:38:34.844Z,15.20
2022-11-12T06:41:21.425Z,15.07
2022-11-12T06:44:07.744Z,14.63
2022-11-12T06:46:54.177Z,14.37
2022-11-12T06:49:40.627Z,16.60
2022-11-12T06:52:28.327Z,19.67
2022-11-12T06:55:15.185Z,15.23
2022-11-12T06:58:02.001Z,18.10
2022-11-12T07:00:48.357Z,16.37
2022-11-12T07:03:35.014Z,17.53
2022-11-12T07:06:21.720Z,17.07
2022-11-12T07:09:09.902Z,16.33
2022-11-12T07:11:56.497Z,17.63
2022-11-12T07:14:43.016Z,17.00
2022-11-12T07:17:29.261Z,18.00
2022-11-12T07:20:15.961Z,14.97
2022-11-12T07:23:02.829Z,16.43
2022-11-12T07:25:56.888Z,16.60
2022-11-12T07:28:43.751Z,16.43
2022-11-12T07:31:30.440Z,19.03
2022-11-12T07:34:17.069Z,15.67
2022-11-12T07:37:03.480Z,13.17
2022-11-12T07:39:50.625Z,14.23
2022-11-12T07:42:38.635Z,16.10
2022-11-12T07:45:25.300Z,14.50
2022-11-12T07:48:11.669Z,13.13
2022-11-12T07:51:02.721Z,13.53
2022-11-12T07:53:53.677Z,12.97
2022-11-12T07:56:42.803Z,12.30
2022-11-12T07:59:30.602Z,11.97
2022-11-12T08:02:17.179Z,16.43
2022-11-12T08:05:07.191Z,12.77
2022-11-12T08:07:56.909Z,13.53
2022-11-12T08:10:43.797Z,14.43
2022-11-12T08:13:30.365Z,12.60
2022-11-12T08:16:18.199Z,12.20
2022-11-12T08:19:05.059Z,12.93
2022-11-12T08:21:51.740Z,14.47
2022-11-12T08:24:38.212Z,12.17
2022-11-12T08:27:24.563Z,12.10
2022-11-12T08:30:12.228Z,11.10
2022-11-12T08:33:02.062Z,12.80
2022-11-12T08:35:48.493Z,11.70
2022-11-12T08:38:35.552Z,11.97
2022-11-12T08:41:21.965Z,13.60
2022-11-12T08:44:09.000Z,12.43
2022-11-12T08:46:55.878Z,11.67
2022-11-12T08:49:47.796Z,12.37
2022-11-12T08:52:34.868Z,12.07
2022-11-12T08:55:21.272Z,12.77
2022-11-12T08:58:08.563Z,12.80
2022-11-12T09:00:55.835Z,12.13
2022-11-12T09:03:42.339Z,11.10
2022-11-12T09:06:30.510Z,11.67
2022-11-12T09:09:17.117Z,11.20
2022-11-12T09:12:12.429Z,12.30
2022-11-12T09:15:35.805Z,11.67
2022-11-12T09:18:11.753Z,11.57
2022-11-12T09:21:03.039Z,11.23
2022-11-12T09:23:50.756Z,10.40
2022-11-12T09:26:37.359Z,11.03
2022-11-12T09:29:23.889Z,11.37
2022-11-12T09:32:10.353Z,11.37
2022-11-12T09:34:56.995Z,11.10
2022-11-12T09:37:43.576Z,10.23
2022-11-12T09:40:42.804Z,11.17
2022-11-12T09:43:32.301Z,11.30
2022-11-12T09:46:40.770Z,11.73
2022-11-12T09:49:32.287Z,11.33
2022-11-12T09:52:24.853Z,11.10
2022-11-12T09:55:18.329Z,13.53
2022-11-12T09:58:12.104Z,11.43
2022-11-12T10:01:04.485Z,10.67
2022-11-12T10:03:58.585Z,11.30
2022-11-12T10:06:50.868Z,10.63
2022-11-12T10:09:46.261Z,12.57
2022-11-12T10:12:45.063Z,10.37
2022-11-12T10:16:02.969Z,10.07
2022-11-12T10:18:58.938Z,11.37
2022-11-12T10:21:56.912Z,10.10
2022-11-12T10:24:44.012Z,10.57
2022-11-12T10:27:39.684Z,11.00
2022-11-12T10:30:26.656Z,11.17
2022-11-12T10:33:16.157Z,12.50
2022-11-12T10:36:18.198Z,12.53
2022-11-12T10:39:04.908Z,10.63
2022-11-12T10:42:03.916Z,10.17
2022-11-12T10:44:51.799Z,11.50
2022-11-12T10:47:43.022Z,10.83
2022-11-12T10:50:35.776Z,12.97
2022-11-12T10:53:34.819Z,12.77
2022-11-12T10:56:28.079Z,13.30
2022-11-12T10:59:19.946Z,13.07
2022-11-12T11:02:18.374Z,12.17
2022-11-12T11:05:33.327Z,11.87
2022-11-12T11:08:36.221Z,13.27
2022-11-12T11:11:28.213Z,15.40
2022-11-12T11:14:33.365Z,13.50
2022-11-12T11:17:20.254Z,12.50
2022-11-12T11:20:16.989Z,11.90
2022-11-12T11:23:12.250Z,11.17
2022-11-12T11:26:11.160Z,11.33
2022-11-12T11:29:09.756Z,13.93
2022-11-12T11:32:01.963Z,11.33
2022-11-12T11:34:58.372Z,10.77
2022-11-12T11:37:58.284Z,14.10
2022-11-12T11:40:58.493Z,14.27
2022-11-12T11:43:58.633Z,11.73
2022-11-12T11:46:53.632Z,12.57
2022-11-12T11:50:11.022Z,13.37
2022-11-12T11:53:08.057Z,11.77
2022-11-12T11:56:00.007Z,11.60
2022-11-12T11:59:02.153Z,13.07
2022-11-12T12:02:03.081Z,12.30
2022-11-12T12:04:52.689Z,13.23
2022-11-12T12:07:47.301Z,11.60
2022-11-12T12:14:10.377Z,11.07
2022-11-12T12:17:05.089Z,11.37
2022-11-12T12:20:03.435Z,10.90
2022-11-12T12:22:52.987Z,10.33
2022-11-12T12:25:42.770Z,11.67
2022-11-12T12:28:38.496Z,10.37
2022-11-12T12:31:33.628Z,13.67
2022-11-12T12:34:23.650Z,13.03
2022-11-12T12:37:21.597Z,10.67
2022-11-12T12:40:18.770Z,10.30
2022-11-12T12:43:11.617Z,11.40
2022-11-12T12:45:59.286Z,12.83
2022-11-12T12:48:48.130Z,10.63
2022-11-12T12:51:35.727Z,10.60
2022-11-12T12:54:57.616Z,13.63
2022-11-12T12:57:44.176Z,10.57
2022-11-12T13:00:38.060Z,12.60
2022-11-12T13:03:54.971Z,12.77
2022-11-12T13:06:52.486Z,10.20
2022-11-12T13:09:39.449Z,10.73
2022-11-12T13:13:03.485Z,10.37
2022-11-12T13:15:53.645Z,10.73
2022-11-12T13:19:02.098Z,12.20
2022-11-12T13:21:48.898Z,11.53
2022-11-12T13:25:25.697Z,10.60
2022-11-12T13:28:14.348Z,11.10
2022-11-12T13:31:03.473Z,12.73
2022-11-12T13:33:50.257Z,10.43
2022-11-12T13:36:38.129Z,11.03
2022-11-12T13:39:25.071Z,11.67
2022-11-12T13:42:32.447Z,13.77
2022-11-12T13:45:22.789Z,11.50
2022-11-12T13:48:13.089Z,10.33
2022-11-12T13:51:03.399Z,11.23
2022-11-12T13:53:51.074Z,12.00
2022-11-12T13:56:39.080Z,12.00
2022-11-12T13:59:27.148Z,11.80
2022-11-12T14:02:23.125Z,11.40
2022-11-12T14:05:18.523Z,14.23
2022-11-12T14:08:21.913Z,11.90
2022-11-12T14:11:45.509Z,10.33
2022-11-12T14:14:50.222Z,12.33
2022-11-12T14:17:43.604Z,11.00
2022-11-12T14:20:36.186Z,10.57
2022-11-12T14:23:25.289Z,10.00
2022-11-12T14:26:14.165Z,10.73
2022-11-12T14:29:02.310Z,10.03
2022-11-12T14:31:48.726Z,11.95
2022-11-12T14:34:35.869Z,10.27
2022-11-12T14:37:39.902Z,11.03
2022-11-12T14:40:32.016Z,9.87
2022-11-12T14:43:28.010Z,11.27
2022-11-12T14:46:26.472Z,13.07
2022-11-12T14:49:28.909Z,13.63
2022-11-12T14:52:19.761Z,12.63
2022-11-12T14:55:12.096Z,11.07
2022-11-12T14:57:59.749Z,11.87
2022-11-12T15:00:49.234Z,12.80
2022-11-12T15:03:37.032Z,14.23
2022-11-12T15:06:30.547Z,12.77
2022-11-12T15:09:21.730Z,13.20
2022-11-12T15:12:12.609Z,13.27
2022-11-12T15:15:09.758Z,10.23
2022-11-12T15:18:00.655Z,10.20
2022-11-12T15:21:06.653Z,11.70
2022-11-12T15:23:55.873Z,9.53
2022-11-12T15:26:44.284Z,10.80
2022-11-12T15:29:33.413Z,11.60
2022-11-12T15:32:34.410Z,14.17
2022-11-12T15:35:35.492Z,12.60
2022-11-12T15:38:27.535Z,14.07
2022-11-12T15:41:24.556Z,14.53
2022-11-12T15:44:11.815Z,13.73
2022-11-12T15:46:59.810Z,14.77
2022-11-12T15:49:51.108Z,13.97
2022-11-12T15:52:38.041Z,15.93
2022-11-12T15:55:25.810Z,17.97
2022-11-12T15:58:17.495Z,17.13
2022-11-12T16:01:05.259Z,18.50
2022-11-12T16:03:51.713Z,16.90
2022-11-12T16:06:38.103Z,18.67
2022-11-12T16:09:24.447Z,21.00
2022-11-12T16:12:12.976Z,19.50
2022-11-12T16:15:00.123Z,16.57
2022-11-12T16:17:46.967Z,15.73
2022-11-12T16:20:35.129Z,16.80
2022-11-12T16:23:21.849Z,17.10
2022-11-12T16:26:10.037Z,16.53
2022-11-12T16:28:58.437Z,16.70
2022-11-12T16:31:45.457Z,18.13
2022-11-12T16:34:31.984Z,16.30
2022-11-12T16:37:18.472Z,15.90
2022-11-12T16:40:05.639Z,17.90
2022-11-12T16:42:52.448Z,15.83
2022-11-12T16:45:42.791Z,13.83
2022-11-12T16:48:29.507Z,14.57
2022-11-12T16:51:20.947Z,13.47
2022-11-12T16:54:08.170Z,15.37
2022-11-12T16:56:54.862Z,18.13
2022-11-12T16:59:41.293Z,14.27
2022-11-12T17:02:29.162Z,16.47
2022-11-12T17:05:17.515Z,14.03
2022-11-12T17:08:03.814Z,14.20
2022-11-12T17:10:50.217Z,16.37
2022-11-12T17:13:38.614Z,15.98
2022-11-12T17:16:24.967Z,17.67
2022-11-12T17:19:12.875Z,19.23
2022-11-12T17:21:59.524Z,20.33
2022-11-12T17:24:45.979Z,20.73
2022-11-12T17:27:32.486Z,27.30
2022-11-12T17:30:19.498Z,40.93
2022-11-12T17:33:06.085Z,38.80
2022-11-12T17:35:53.814Z,35.90
2022-11-12T17:38:41.067Z,33.40
2022-11-12T17:41:28.969Z,44.77
2022-11-12T17:44:17.639Z,44.13
2022-11-12T17:47:04.264Z,41.40
2022-11-12T17:49:50.949Z,38.30
2022-11-12T17:52:38.838Z,36.30
2022-11-12T17:55:25.210Z,30.73
2022-11-12T17:58:11.886Z,29.93
2022-11-12T18:01:04.799Z,27.60
2022-11-12T18:03:53.554Z,26.63
2022-11-12T18:06:40.312Z,25.70
2022-11-12T18:09:28.128Z,27.07
2022-11-12T18:12:15.991Z,27.07
2022-11-12T18:15:02.436Z,27.07
2022-11-12T18:17:48.885Z,28.43
2022-11-12T18:20:36.828Z,33.63
2022-11-12T18:23:23.949Z,30.90
2022-11-12T18:26:14.965Z,30.13
2022-11-12T18:29:01.480Z,27.77
2022-11-12T18:31:49.462Z,30.70
2022-11-12T18:34:39.819Z,32.00
2022-11-12T18:37:26.360Z,27.77
2022-11-12T18:40:13.071Z,29.03
2022-11-12T18:43:00.929Z,25.80
2022-11-12T18:45:55.365Z,25.27
2022-11-12T18:48:42.293Z,24.10
2022-11-12T18:51:29.050Z,24.47
2022-11-12T18:54:16.152Z,29.73
2022-11-12T18:57:02.656Z,24.63
2022-11-12T18:59:52.198Z,22.83
2022-11-12T19:02:38.569Z,24.93
2022-11-12T19:05:25.284Z,21.77
2022-11-12T19:08:11.885Z,21.90
2022-11-12T19:10:59.478Z,20.63
2022-11-12T19:13:46.405Z,19.97
2022-11-12T19:16:34.497Z,21.43
2022-11-12T19:19:21.190Z,18.73
2022-11-12T19:22:07.606Z,18.17
2022-11-12T19:24:54.101Z,17.60
2022-11-12T19:27:40.594Z,16.57
2022-11-12T19:30:26.892Z,16.30
2022-11-12T19:33:14.872Z,14.27
2022-11-12T19:36:06.655Z,13.23
2022-11-12T19:38:57.785Z,15.23
2022-11-12T19:41:44.441Z,14.40
2022-11-12T19:44:30.806Z,14.73
2022-11-12T19:47:17.421Z,12.80
2022-11-12T19:50:05.386Z,11.30
2022-11-12T19:52:53.957Z,10.33
2022-11-12T19:55:40.457Z,11.97
2022-11-12T19:58:27.634Z,11.33
2022-11-12T20:01:16.717Z,10.73
2022-11-12T20:04:03.306Z,10.70
2022-11-12T20:06:50.989Z,10.07
2022-11-12T20:09:37.957Z,12.10
2022-11-12T20:12:25.217Z,12.73
2022-11-12T20:15:12.050Z,12.73
2022-11-12T20:17:58.644Z,14.37
2022-11-12T20:20:47.504Z,13.73
2022-11-12T20:23:39.220Z,9.07
2022-11-12T20:26:26.728Z,10.60
2022-11-12T20:29:13.440Z,10.30
2022-11-12T20:31:59.768Z,8.50
2022-11-12T20:34:46.475Z,8.20
2022-11-12T20:37:33.137Z,9.63
2022-11-12T20:40:21.018Z,10.33
2022-11-12T20:43:07.627Z,12.50
2022-11-12T20:45:54.050Z,13.00
2022-11-12T20:48:43.545Z,9.30
2022-11-12T20:51:30.400Z,15.00
2022-11-12T20:54:16.857Z,11.63
2022-11-12T20:57:04.861Z,11.90
2022-11-12T20:59:51.740Z,15.40
2022-11-12T21:02:38.398Z,12.53
2022-11-12T21:05:25.338Z,10.47
2022-11-12T21:08:11.836Z,12.57
2022-11-12T21:10:59.160Z,11.23
2022-11-12T21:13:47.051Z,9.37
2022-11-12T21:16:33.714Z,13.13
2022-11-12T21:19:20.124Z,9.77
2022-11-12T21:22:06.645Z,10.67
2022-11-12T21:24:53.170Z,12.47
2022-11-12T21:27:39.456Z,11.10
2022-11-12T21:30:27.252Z,12.00
2022-11-12T21:33:13.926Z,12.33
2022-11-12T21:36:00.569Z,11.30
2022-11-12T21:38:48.016Z,10.30
2022-11-12T21:41:35.048Z,10.57
2022-11-12T21:44:21.719Z,10.43
2022-11-12T21:47:09.520Z,10.40
2022-11-12T21:50:01.559Z,11.57
2022-11-12T21:52:47.952Z,11.07
2022-11-12T21:55:34.316Z,10.30
2022-11-12T21:58:20.652Z,8.80
2022-11-12T22:01:08.632Z,8.17
2022-11-12T22:03:57.815Z,13.17
2022-11-12T22:06:44.240Z,9.40
2022-11-12T22:09:31.146Z,8.53
2022-11-12T22:12:18.602Z,9.60
2022-11-12T22:15:05.538Z,8.13
2022-11-12T22:17:52.000Z,8.47
2022-11-12T22:20:39.763Z,9.27
2022-11-12T22:23:27.030Z,9.33
2022-11-12T22:26:15.249Z,8.07
2022-11-12T22:29:01.893Z,8.00
2022-11-12T22:31:48.280Z,8.53
2022-11-12T22:34:34.817Z,10.87
2022-11-12T22:37:22.649Z,7.73
2022-11-12T22:40:13.324Z,7.47
2022-11-12T22:43:00.443Z,8.07
2022-11-12T22:45:46.850Z,7.07
2022-11-12T22:48:33.405Z,6.53
2022-11-12T22:51:21.713Z,7.37
2022-11-12T22:54:13.177Z,7.23
2022-11-12T22:56:59.961Z,6.63
2022-11-12T22:59:46.352Z,6.83
2022-11-12T23:02:32.925Z,8.20
2022-11-12T23:05:19.502Z,8.97
2022-11-12T23:08:06.529Z,7.33
2022-11-12T23:10:54.694Z,7.47
2022-11-12T23:13:41.792Z,7.63
2022-11-12T23:16:31.205Z,7.60
2022-11-12T23:19:17.648Z,8.03
2022-11-12T23:22:07.925Z,8.00
2022-11-12T23:24:55.063Z,10.37
2022-11-12T23:27:42.800Z,9.07
2022-11-12T23:30:29.689Z,8.83
2022-11-12T23:33:16.418Z,8.37
2022-11-12T23:36:07.111Z,8.27
2022-11-12T23:38:54.112Z,8.73
2022-11-12T23:41:40.512Z,7.93
2022-11-12T23:44:28.256Z,6.70
2022-11-12T23:47:14.861Z,6.23
2022-11-12T23:50:01.385Z,6.37
2022-11-12T23:52:48.311Z,5.83
2022-11-12T23:55:38.411Z,6.03
2022-11-12T23:58:25.284Z,6.40
